sensor_id;sensor_type;location;lat;lon;timestamp;temperature;humidity
78550;DHT22;68091;52.130;5.570;2023-06-26T00:02:04;23.50;99.90
78550;DHT22;68091;52.130;5.570;2023-06-26T00:04:30;23.50;99.90
78550;DHT22;68091;52.130;5.570;2023-06-26T00:06:55;23.50;99.90
78550;DHT22;68091;52.130;5.570;2023-06-26T00:09:21;23.50;99.90
78550;DHT22;68091;52.130;5.570;2023-06-26T00:11:47;23.50;99.90
78550;DHT22;68091;52.130;5.570;2023-06-26T00:14:12;23.40;99.90
78550;DHT22;68091;52.130;5.570;2023-06-26T00:16:38;23.30;99.90
78550;DHT22;68091;52.130;5.570;2023-06-26T00:19:04;23.30;99.90
78550;DHT22;68091;52.130;5.570;2023-06-26T00:21:29;23.30;99.90
78550;DHT22;68091;52.130;5.570;2023-06-26T00:23:55;23.20;99.90
78550;DHT22;68091;52.130;5.570;2023-06-26T00:26:21;23.20;99.90
78550;DHT22;68091;52.130;5.570;2023-06-26T00:28:46;23.20;99.90
78550;DHT22;68091;52.130;5.570;2023-06-26T00:31:12;23.10;99.90
78550;DHT22;68091;52.130;5.570;2023-06-26T00:33:38;23.10;99.90
78550;DHT22;68091;52.130;5.570;2023-06-26T00:36:03;23.10;99.90
78550;DHT22;68091;52.130;5.570;2023-06-26T00:38:29;23.10;99.90
78550;DHT22;68091;52.130;5.570;2023-06-26T00:40:55;23.10;99.90
78550;DHT22;68091;52.130;5.570;2023-06-26T00:43:21;23.10;99.90
78550;DHT22;68091;52.130;5.570;2023-06-26T00:45:47;23.10;99.90
78550;DHT22;68091;52.130;5.570;2023-06-26T00:48:13;23.10;99.90
78550;DHT22;68091;52.130;5.570;2023-06-26T00:50:39;23.10;99.90
78550;DHT22;68091;52.130;5.570;2023-06-26T00:53:05;23.10;99.90
78550;DHT22;68091;52.130;5.570;2023-06-26T00:55:31;23.00;99.90
78550;DHT22;68091;52.130;5.570;2023-06-26T00:57:57;22.90;99.90
78550;DHT22;68091;52.130;5.570;2023-06-26T01:00:23;22.80;99.90
78550;DHT22;68091;52.130;5.570;2023-06-26T01:02:48;22.80;99.90
78550;DHT22;68091;52.130;5.570;2023-06-26T01:05:14;22.80;99.90
78550;DHT22;68091;52.130;5.570;2023-06-26T01:07:50;22.80;99.90
78550;DHT22;68091;52.130;5.570;2023-06-26T01:10:16;22.80;99.90
78550;DHT22;68091;52.130;5.570;2023-06-26T01:12:42;22.70;99.90
78550;DHT22;68091;52.130;5.570;2023-06-26T01:15:09;22.70;99.90
78550;DHT22;68091;52.130;5.570;2023-06-26T01:17:36;22.60;99.90
78550;DHT22;68091;52.130;5.570;2023-06-26T01:20:05;22.60;99.90
78550;DHT22;68091;52.130;5.570;2023-06-26T01:26:13;22.70;99.90
78550;DHT22;68091;52.130;5.570;2023-06-26T01:28:29;22.70;99.90
78550;DHT22;68091;52.130;5.570;2023-06-26T01:30:56;22.60;99.90
78550;DHT22;68091;52.130;5.570;2023-06-26T01:33:21;22.60;99.90
78550;DHT22;68091;52.130;5.570;2023-06-26T01:35:47;22.60;99.90
78550;DHT22;68091;52.130;5.570;2023-06-26T01:40:39;22.50;99.90
78550;DHT22;68091;52.130;5.570;2023-06-26T01:43:05;22.50;99.90
78550;DHT22;68091;52.130;5.570;2023-06-26T01:45:31;22.40;99.90
78550;DHT22;68091;52.130;5.570;2023-06-26T01:47:57;22.40;99.90
78550;DHT22;68091;52.130;5.570;2023-06-26T01:50:26;22.30;99.90
78550;DHT22;68091;52.130;5.570;2023-06-26T01:53:10;22.30;99.90
78550;DHT22;68091;52.130;5.570;2023-06-26T01:55:40;22.30;99.90
78550;DHT22;68091;52.130;5.570;2023-06-26T01:58:08;22.20;99.90
78550;DHT22;68091;52.130;5.570;2023-06-26T02:00:34;22.20;99.90
78550;DHT22;68091;52.130;5.570;2023-06-26T02:03:00;22.20;99.90
78550;DHT22;68091;52.130;5.570;2023-06-26T02:05:25;22.10;99.90
78550;DHT22;68091;52.130;5.570;2023-06-26T02:07:51;22.10;99.90
78550;DHT22;68091;52.130;5.570;2023-06-26T02:10:16;22.10;99.90
78550;DHT22;68091;52.130;5.570;2023-06-26T02:12:42;22.00;99.90
78550;DHT22;68091;52.130;5.570;2023-06-26T02:15:08;22.00;99.90
78550;DHT22;68091;52.130;5.570;2023-06-26T02:17:33;21.90;99.90
78550;DHT22;68091;52.130;5.570;2023-06-26T02:19:59;21.80;99.90
78550;DHT22;68091;52.130;5.570;2023-06-26T02:22:25;21.80;99.90
78550;DHT22;68091;52.130;5.570;2023-06-26T02:24:50;21.70;99.90
78550;DHT22;68091;52.130;5.570;2023-06-26T02:27:16;21.60;99.90
78550;DHT22;68091;52.130;5.570;2023-06-26T02:29:42;21.60;99.90
78550;DHT22;68091;52.130;5.570;2023-06-26T02:32:07;21.60;99.90
78550;DHT22;68091;52.130;5.570;2023-06-26T02:34:33;21.50;99.90
78550;DHT22;68091;52.130;5.570;2023-06-26T02:36:59;21.40;99.90
78550;DHT22;68091;52.130;5.570;2023-06-26T02:39:26;21.40;99.90
78550;DHT22;68091;52.130;5.570;2023-06-26T02:41:51;21.30;99.90
78550;DHT22;68091;52.130;5.570;2023-06-26T02:44:17;21.30;99.90
78550;DHT22;68091;52.130;5.570;2023-06-26T02:46:42;21.20;99.90
78550;DHT22;68091;52.130;5.570;2023-06-26T02:49:08;21.20;99.90
78550;DHT22;68091;52.130;5.570;2023-06-26T02:51:33;21.20;99.90
78550;DHT22;68091;52.130;5.570;2023-06-26T02:53:59;21.10;99.90
78550;DHT22;68091;52.130;5.570;2023-06-26T02:56:25;21.00;99.90
78550;DHT22;68091;52.130;5.570;2023-06-26T02:58:54;20.90;99.90
78550;DHT22;68091;52.130;5.570;2023-06-26T03:01:19;20.90;99.90
78550;DHT22;68091;52.130;5.570;2023-06-26T03:03:45;20.90;99.90
78550;DHT22;68091;52.130;5.570;2023-06-26T03:06:12;20.90;99.90
78550;DHT22;68091;52.130;5.570;2023-06-26T03:08:38;20.80;99.90
78550;DHT22;68091;52.130;5.570;2023-06-26T03:11:06;20.80;99.90
78550;DHT22;68091;52.130;5.570;2023-06-26T03:13:32;20.80;99.90
78550;DHT22;68091;52.130;5.570;2023-06-26T03:15:58;20.80;99.90
78550;DHT22;68091;52.130;5.570;2023-06-26T03:18:24;20.70;99.90
78550;DHT22;68091;52.130;5.570;2023-06-26T03:20:49;20.70;99.90
78550;DHT22;68091;52.130;5.570;2023-06-26T03:23:15;20.70;99.90
78550;DHT22;68091;52.130;5.570;2023-06-26T03:25:40;20.60;99.90
78550;DHT22;68091;52.130;5.570;2023-06-26T03:28:06;20.60;99.90
78550;DHT22;68091;52.130;5.570;2023-06-26T03:30:31;20.60;99.90
78550;DHT22;68091;52.130;5.570;2023-06-26T03:32:57;20.70;99.90
78550;DHT22;68091;52.130;5.570;2023-06-26T03:35:22;20.70;99.90
78550;DHT22;68091;52.130;5.570;2023-06-26T03:37:49;20.60;99.90
78550;DHT22;68091;52.130;5.570;2023-06-26T03:40:14;20.60;99.90
78550;DHT22;68091;52.130;5.570;2023-06-26T03:42:40;20.60;99.90
78550;DHT22;68091;52.130;5.570;2023-06-26T03:45:05;20.70;99.90
78550;DHT22;68091;52.130;5.570;2023-06-26T03:47:31;20.70;99.90
78550;DHT22;68091;52.130;5.570;2023-06-26T03:49:56;20.70;99.90
78550;DHT22;68091;52.130;5.570;2023-06-26T03:52:22;20.70;99.90
78550;DHT22;68091;52.130;5.570;2023-06-26T03:54:47;20.70;99.90
78550;DHT22;68091;52.130;5.570;2023-06-26T03:57:14;20.70;99.90
78550;DHT22;68091;52.130;5.570;2023-06-26T03:59:39;20.70;99.90
78550;DHT22;68091;52.130;5.570;2023-06-26T04:02:05;20.60;99.90
78550;DHT22;68091;52.130;5.570;2023-06-26T04:04:30;20.60;99.90
78550;DHT22;68091;52.130;5.570;2023-06-26T04:06:56;20.60;99.90
78550;DHT22;68091;52.130;5.570;2023-06-26T04:09:22;20.60;99.90
78550;DHT22;68091;52.130;5.570;2023-06-26T04:11:48;20.60;99.90
78550;DHT22;68091;52.130;5.570;2023-06-26T04:14:13;20.60;99.90
78550;DHT22;68091;52.130;5.570;2023-06-26T04:16:39;20.60;99.90
78550;DHT22;68091;52.130;5.570;2023-06-26T04:19:04;20.60;99.90
78550;DHT22;68091;52.130;5.570;2023-06-26T04:21:30;20.50;99.90
78550;DHT22;68091;52.130;5.570;2023-06-26T04:23:55;20.50;99.90
78550;DHT22;68091;52.130;5.570;2023-06-26T04:26:21;20.50;99.90
78550;DHT22;68091;52.130;5.570;2023-06-26T04:28:47;20.50;99.90
78550;DHT22;68091;52.130;5.570;2023-06-26T04:31:13;20.50;99.90
78550;DHT22;68091;52.130;5.570;2023-06-26T04:33:39;20.60;99.90
78550;DHT22;68091;52.130;5.570;2023-06-26T04:36:04;20.70;99.90
78550;DHT22;68091;52.130;5.570;2023-06-26T04:38:33;20.70;99.90
78550;DHT22;68091;52.130;5.570;2023-06-26T04:40:59;20.60;99.90
78550;DHT22;68091;52.130;5.570;2023-06-26T04:43:25;20.70;99.90
78550;DHT22;68091;52.130;5.570;2023-06-26T04:45:50;20.60;99.90
78550;DHT22;68091;52.130;5.570;2023-06-26T04:48:16;20.60;99.90
78550;DHT22;68091;52.130;5.570;2023-06-26T04:50:42;20.50;99.90
78550;DHT22;68091;52.130;5.570;2023-06-26T04:53:07;20.50;99.90
78550;DHT22;68091;52.130;5.570;2023-06-26T04:55:33;20.50;99.90
78550;DHT22;68091;52.130;5.570;2023-06-26T04:57:58;20.60;99.90
78550;DHT22;68091;52.130;5.570;2023-06-26T05:00:24;20.50;99.90
78550;DHT22;68091;52.130;5.570;2023-06-26T05:02:50;20.50;99.90
78550;DHT22;68091;52.130;5.570;2023-06-26T05:05:24;20.50;99.90
78550;DHT22;68091;52.130;5.570;2023-06-26T05:07:49;20.50;99.90
78550;DHT22;68091;52.130;5.570;2023-06-26T05:10:15;20.60;99.90
78550;DHT22;68091;52.130;5.570;2023-06-26T05:12:41;20.70;99.90
78550;DHT22;68091;52.130;5.570;2023-06-26T05:15:06;21.10;99.90
78550;DHT22;68091;52.130;5.570;2023-06-26T05:17:32;21.20;99.90
78550;DHT22;68091;52.130;5.570;2023-06-26T05:19:57;21.10;99.90
78550;DHT22;68091;52.130;5.570;2023-06-26T05:22:23;21.00;99.90
78550;DHT22;68091;52.130;5.570;2023-06-26T05:24:48;21.00;99.90
78550;DHT22;68091;52.130;5.570;2023-06-26T05:27:16;21.10;99.90
78550;DHT22;68091;52.130;5.570;2023-06-26T05:29:47;21.10;99.90
78550;DHT22;68091;52.130;5.570;2023-06-26T05:32:13;21.10;99.90
78550;DHT22;68091;52.130;5.570;2023-06-26T05:34:43;21.30;99.90
78550;DHT22;68091;52.130;5.570;2023-06-26T05:37:09;21.40;99.90
78550;DHT22;68091;52.130;5.570;2023-06-26T05:39:38;21.60;99.90
78550;DHT22;68091;52.130;5.570;2023-06-26T05:42:04;21.70;99.90
78550;DHT22;68091;52.130;5.570;2023-06-26T05:44:29;21.70;99.90
78550;DHT22;68091;52.130;5.570;2023-06-26T05:46:55;21.80;99.90
78550;DHT22;68091;52.130;5.570;2023-06-26T05:49:20;21.90;99.90
78550;DHT22;68091;52.130;5.570;2023-06-26T05:51:46;21.90;99.90
78550;DHT22;68091;52.130;5.570;2023-06-26T05:54:12;21.80;99.90
78550;DHT22;68091;52.130;5.570;2023-06-26T05:56:38;21.80;99.90
78550;DHT22;68091;52.130;5.570;2023-06-26T05:59:04;21.90;99.90
78550;DHT22;68091;52.130;5.570;2023-06-26T06:01:31;22.00;99.90
78550;DHT22;68091;52.130;5.570;2023-06-26T06:03:58;22.10;99.90
78550;DHT22;68091;52.130;5.570;2023-06-26T06:06:24;22.10;99.90
78550;DHT22;68091;52.130;5.570;2023-06-26T06:08:49;22.30;99.90
78550;DHT22;68091;52.130;5.570;2023-06-26T06:11:15;22.30;99.90
78550;DHT22;68091;52.130;5.570;2023-06-26T06:13:40;22.30;99.90
78550;DHT22;68091;52.130;5.570;2023-06-26T06:16:06;22.30;99.90
78550;DHT22;68091;52.130;5.570;2023-06-26T06:18:31;22.50;99.90
78550;DHT22;68091;52.130;5.570;2023-06-26T06:20:57;22.70;99.90
78550;DHT22;68091;52.130;5.570;2023-06-26T06:23:22;22.80;99.90
78550;DHT22;68091;52.130;5.570;2023-06-26T06:25:48;22.80;99.90
78550;DHT22;68091;52.130;5.570;2023-06-26T06:28:14;23.10;99.90
78550;DHT22;68091;52.130;5.570;2023-06-26T06:30:41;23.00;99.90
78550;DHT22;68091;52.130;5.570;2023-06-26T06:33:07;23.10;99.90
78550;DHT22;68091;52.130;5.570;2023-06-26T06:35:32;23.40;99.90
78550;DHT22;68091;52.130;5.570;2023-06-26T06:37:58;23.30;99.90
78550;DHT22;68091;52.130;5.570;2023-06-26T06:40:23;23.10;99.90
78550;DHT22;68091;52.130;5.570;2023-06-26T06:42:51;23.10;99.90
78550;DHT22;68091;52.130;5.570;2023-06-26T06:45:16;23.10;99.90
78550;DHT22;68091;52.130;5.570;2023-06-26T06:47:42;23.10;99.90
78550;DHT22;68091;52.130;5.570;2023-06-26T06:50:08;23.20;99.90
78550;DHT22;68091;52.130;5.570;2023-06-26T06:52:37;23.20;99.90
78550;DHT22;68091;52.130;5.570;2023-06-26T06:55:03;23.50;99.90
78550;DHT22;68091;52.130;5.570;2023-06-26T06:57:37;23.80;99.90
78550;DHT22;68091;52.130;5.570;2023-06-26T07:00:04;24.10;99.90
78550;DHT22;68091;52.130;5.570;2023-06-26T07:02:30;23.90;99.90
78550;DHT22;68091;52.130;5.570;2023-06-26T07:04:55;23.60;99.90
78550;DHT22;68091;52.130;5.570;2023-06-26T07:07:21;23.30;99.90
78550;DHT22;68091;52.130;5.570;2023-06-26T07:09:46;23.00;99.90
78550;DHT22;68091;52.130;5.570;2023-06-26T07:12:12;22.90;99.90
78550;DHT22;68091;52.130;5.570;2023-06-26T07:14:38;22.80;99.90
78550;DHT22;68091;52.130;5.570;2023-06-26T07:17:04;22.80;99.90
78550;DHT22;68091;52.130;5.570;2023-06-26T07:19:29;23.20;99.90
78550;DHT22;68091;52.130;5.570;2023-06-26T07:21:55;23.60;99.90
78550;DHT22;68091;52.130;5.570;2023-06-26T07:24:20;24.10;99.90
78550;DHT22;68091;52.130;5.570;2023-06-26T07:26:46;24.20;99.90
78550;DHT22;68091;52.130;5.570;2023-06-26T07:29:12;24.30;99.90
78550;DHT22;68091;52.130;5.570;2023-06-26T07:31:37;23.90;99.90
78550;DHT22;68091;52.130;5.570;2023-06-26T07:34:03;23.90;99.90
78550;DHT22;68091;52.130;5.570;2023-06-26T07:36:28;23.80;99.90
78550;DHT22;68091;52.130;5.570;2023-06-26T07:38:54;24.00;99.90
78550;DHT22;68091;52.130;5.570;2023-06-26T07:41:20;24.00;99.90
78550;DHT22;68091;52.130;5.570;2023-06-26T07:43:45;24.00;99.90
78550;DHT22;68091;52.130;5.570;2023-06-26T07:46:11;24.10;99.90
78550;DHT22;68091;52.130;5.570;2023-06-26T07:48:37;23.90;99.90
78550;DHT22;68091;52.130;5.570;2023-06-26T07:51:02;23.60;99.90
78550;DHT22;68091;52.130;5.570;2023-06-26T07:53:28;23.20;99.90
78550;DHT22;68091;52.130;5.570;2023-06-26T07:55:53;23.20;99.90
78550;DHT22;68091;52.130;5.570;2023-06-26T07:58:19;23.40;99.90
78550;DHT22;68091;52.130;5.570;2023-06-26T08:00:44;23.70;99.90
78550;DHT22;68091;52.130;5.570;2023-06-26T08:03:10;24.10;99.90
78550;DHT22;68091;52.130;5.570;2023-06-26T08:05:35;24.40;99.90
78550;DHT22;68091;52.130;5.570;2023-06-26T08:08:01;24.60;99.90
78550;DHT22;68091;52.130;5.570;2023-06-26T08:10:28;24.90;99.90
78550;DHT22;68091;52.130;5.570;2023-06-26T08:12:54;25.20;99.90
78550;DHT22;68091;52.130;5.570;2023-06-26T08:15:20;25.00;99.90
78550;DHT22;68091;52.130;5.570;2023-06-26T08:17:46;24.70;99.90
78550;DHT22;68091;52.130;5.570;2023-06-26T08:20:12;24.50;99.90
78550;DHT22;68091;52.130;5.570;2023-06-26T08:22:38;24.30;99.90
78550;DHT22;68091;52.130;5.570;2023-06-26T08:25:03;23.80;99.90
78550;DHT22;68091;52.130;5.570;2023-06-26T08:27:31;23.60;99.90
78550;DHT22;68091;52.130;5.570;2023-06-26T08:29:56;23.80;99.90
78550;DHT22;68091;52.130;5.570;2023-06-26T08:32:22;23.90;99.90
78550;DHT22;68091;52.130;5.570;2023-06-26T08:34:47;24.30;99.90
78550;DHT22;68091;52.130;5.570;2023-06-26T08:37:13;25.00;99.90
78550;DHT22;68091;52.130;5.570;2023-06-26T08:39:39;24.80;99.90
78550;DHT22;68091;52.130;5.570;2023-06-26T08:42:04;24.70;99.90
78550;DHT22;68091;52.130;5.570;2023-06-26T08:44:30;24.80;99.90
78550;DHT22;68091;52.130;5.570;2023-06-26T08:46:55;25.20;99.90
78550;DHT22;68091;52.130;5.570;2023-06-26T08:49:25;25.20;99.90
78550;DHT22;68091;52.130;5.570;2023-06-26T08:51:57;24.70;99.90
78550;DHT22;68091;52.130;5.570;2023-06-26T08:54:42;24.90;99.90
78550;DHT22;68091;52.130;5.570;2023-06-26T08:57:08;25.40;99.90
78550;DHT22;68091;52.130;5.570;2023-06-26T08:59:33;25.10;99.90
78550;DHT22;68091;52.130;5.570;2023-06-26T09:01:59;24.40;99.90
78550;DHT22;68091;52.130;5.570;2023-06-26T09:04:25;24.50;99.90
78550;DHT22;68091;52.130;5.570;2023-06-26T09:06:51;24.40;99.90
78550;DHT22;68091;52.130;5.570;2023-06-26T09:09:16;24.40;99.90
78550;DHT22;68091;52.130;5.570;2023-06-26T09:11:42;24.70;99.90
78550;DHT22;68091;52.130;5.570;2023-06-26T09:14:07;24.70;99.90
78550;DHT22;68091;52.130;5.570;2023-06-26T09:16:41;24.60;99.90
78550;DHT22;68091;52.130;5.570;2023-06-26T09:19:11;24.70;99.90
78550;DHT22;68091;52.130;5.570;2023-06-26T09:21:40;24.90;99.90
78550;DHT22;68091;52.130;5.570;2023-06-26T09:24:09;25.10;99.90
78550;DHT22;68091;52.130;5.570;2023-06-26T09:26:36;25.10;99.90
78550;DHT22;68091;52.130;5.570;2023-06-26T09:29:02;24.90;99.90
78550;DHT22;68091;52.130;5.570;2023-06-26T09:31:27;25.00;99.90
78550;DHT22;68091;52.130;5.570;2023-06-26T09:33:55;24.90;99.90
78550;DHT22;68091;52.130;5.570;2023-06-26T09:36:21;24.40;99.90
78550;DHT22;68091;52.130;5.570;2023-06-26T09:38:47;24.30;99.90
78550;DHT22;68091;52.130;5.570;2023-06-26T09:41:15;24.40;99.90
78550;DHT22;68091;52.130;5.570;2023-06-26T09:43:47;24.50;99.90
78550;DHT22;68091;52.130;5.570;2023-06-26T09:46:32;24.50;99.90
78550;DHT22;68091;52.130;5.570;2023-06-26T09:49:02;24.50;99.90
78550;DHT22;68091;52.130;5.570;2023-06-26T09:51:33;24.60;99.90
78550;DHT22;68091;52.130;5.570;2023-06-26T09:53:59;24.60;99.90
78550;DHT22;68091;52.130;5.570;2023-06-26T09:56:25;25.00;99.90
78550;DHT22;68091;52.130;5.570;2023-06-26T09:58:50;25.20;99.90
78550;DHT22;68091;52.130;5.570;2023-06-26T10:01:17;25.40;99.90
78550;DHT22;68091;52.130;5.570;2023-06-26T10:03:42;25.30;99.90
78550;DHT22;68091;52.130;5.570;2023-06-26T10:06:09;25.30;99.90
78550;DHT22;68091;52.130;5.570;2023-06-26T10:08:34;25.30;99.90
78550;DHT22;68091;52.130;5.570;2023-06-26T10:11:01;25.20;99.90
78550;DHT22;68091;52.130;5.570;2023-06-26T10:13:31;25.00;99.90
78550;DHT22;68091;52.130;5.570;2023-06-26T10:15:57;24.80;99.90
78550;DHT22;68091;52.130;5.570;2023-06-26T10:18:24;24.60;99.90
78550;DHT22;68091;52.130;5.570;2023-06-26T10:20:51;24.90;99.90
78550;DHT22;68091;52.130;5.570;2023-06-26T10:23:19;25.10;99.90
78550;DHT22;68091;52.130;5.570;2023-06-26T10:25:45;24.90;99.90
78550;DHT22;68091;52.130;5.570;2023-06-26T10:28:13;24.80;99.90
78550;DHT22;68091;52.130;5.570;2023-06-26T10:30:40;24.80;99.90
78550;DHT22;68091;52.130;5.570;2023-06-26T10:33:07;24.90;99.90
78550;DHT22;68091;52.130;5.570;2023-06-26T10:35:33;24.90;99.90
78550;DHT22;68091;52.130;5.570;2023-06-26T10:38:02;24.90;99.30
78550;DHT22;68091;52.130;5.570;2023-06-26T10:40:33;24.70;99.40
78550;DHT22;68091;52.130;5.570;2023-06-26T10:43:08;24.90;99.90
78550;DHT22;68091;52.130;5.570;2023-06-26T10:45:34;25.00;99.50
78550;DHT22;68091;52.130;5.570;2023-06-26T10:48:01;25.50;99.60
78550;DHT22;68091;52.130;5.570;2023-06-26T10:50:28;25.40;99.40
78550;DHT22;68091;52.130;5.570;2023-06-26T10:55:50;25.60;99.00
78550;DHT22;68091;52.130;5.570;2023-06-26T10:58:33;25.20;98.80
78550;DHT22;68091;52.130;5.570;2023-06-26T11:03:37;25.20;98.90
78550;DHT22;68091;52.130;5.570;2023-06-26T11:06:12;25.50;98.80
78550;DHT22;68091;52.130;5.570;2023-06-26T11:08:51;25.80;98.70
78550;DHT22;68091;52.130;5.570;2023-06-26T11:11:19;26.10;98.20
78550;DHT22;68091;52.130;5.570;2023-06-26T11:13:45;25.70;98.00
78550;DHT22;68091;52.130;5.570;2023-06-26T11:16:11;25.70;97.70
78550;DHT22;68091;52.130;5.570;2023-06-26T11:18:37;25.50;98.10
78550;DHT22;68091;52.130;5.570;2023-06-26T11:21:10;25.30;98.50
78550;DHT22;68091;52.130;5.570;2023-06-26T11:23:37;25.00;98.60
78550;DHT22;68091;52.130;5.570;2023-06-26T11:26:21;24.80;98.50
78550;DHT22;68091;52.130;5.570;2023-06-26T11:28:56;24.90;98.50
78550;DHT22;68091;52.130;5.570;2023-06-26T11:31:25;25.00;97.80
78550;DHT22;68091;52.130;5.570;2023-06-26T11:33:51;25.20;97.20
78550;DHT22;68091;52.130;5.570;2023-06-26T11:36:17;25.10;97.30
78550;DHT22;68091;52.130;5.570;2023-06-26T11:38:42;25.20;97.90
78550;DHT22;68091;52.130;5.570;2023-06-26T11:41:08;25.50;97.30
78550;DHT22;68091;52.130;5.570;2023-06-26T11:43:34;25.60;96.90
78550;DHT22;68091;52.130;5.570;2023-06-26T11:45:59;25.20;95.90
78550;DHT22;68091;52.130;5.570;2023-06-26T11:48:25;24.80;96.60
78550;DHT22;68091;52.130;5.570;2023-06-26T11:50:51;24.90;97.20
78550;DHT22;68091;52.130;5.570;2023-06-26T11:53:19;25.20;97.10
78550;DHT22;68091;52.130;5.570;2023-06-26T11:55:45;25.30;97.20
78550;DHT22;68091;52.130;5.570;2023-06-26T11:58:10;25.10;97.40
78550;DHT22;68091;52.130;5.570;2023-06-26T12:00:40;25.30;96.90
78550;DHT22;68091;52.130;5.570;2023-06-26T12:03:06;25.00;97.00
78550;DHT22;68091;52.130;5.570;2023-06-26T12:05:31;25.20;97.10
78550;DHT22;68091;52.130;5.570;2023-06-26T12:07:57;25.40;96.50
78550;DHT22;68091;52.130;5.570;2023-06-26T12:10:24;25.20;96.20
78550;DHT22;68091;52.130;5.570;2023-06-26T12:12:50;25.10;95.80
78550;DHT22;68091;52.130;5.570;2023-06-26T12:15:16;25.30;95.90
78550;DHT22;68091;52.130;5.570;2023-06-26T12:17:42;25.40;95.50
78550;DHT22;68091;52.130;5.570;2023-06-26T12:20:23;25.60;95.70
78550;DHT22;68091;52.130;5.570;2023-06-26T12:22:50;25.80;95.20
78550;DHT22;68091;52.130;5.570;2023-06-26T12:25:21;25.60;94.80
78550;DHT22;68091;52.130;5.570;2023-06-26T12:27:47;25.40;95.10
78550;DHT22;68091;52.130;5.570;2023-06-26T12:30:13;25.40;94.70
78550;DHT22;68091;52.130;5.570;2023-06-26T12:32:39;25.20;94.60
78550;DHT22;68091;52.130;5.570;2023-06-26T12:35:05;25.10;95.20
78550;DHT22;68091;52.130;5.570;2023-06-26T12:37:35;25.20;94.70
78550;DHT22;68091;52.130;5.570;2023-06-26T12:40:01;25.10;94.80
78550;DHT22;68091;52.130;5.570;2023-06-26T12:42:32;25.40;93.50
78550;DHT22;68091;52.130;5.570;2023-06-26T12:44:58;25.70;94.00
78550;DHT22;68091;52.130;5.570;2023-06-26T12:47:24;25.60;93.50
78550;DHT22;68091;52.130;5.570;2023-06-26T12:49:50;25.40;94.50
78550;DHT22;68091;52.130;5.570;2023-06-26T12:52:16;25.50;94.90
78550;DHT22;68091;52.130;5.570;2023-06-26T12:54:44;25.40;94.40
78550;DHT22;68091;52.130;5.570;2023-06-26T12:57:09;25.00;94.20
78550;DHT22;68091;52.130;5.570;2023-06-26T12:59:36;24.70;93.60
78550;DHT22;68091;52.130;5.570;2023-06-26T13:02:02;24.90;94.00
78550;DHT22;68091;52.130;5.570;2023-06-26T13:04:28;25.00;94.00
78550;DHT22;68091;52.130;5.570;2023-06-26T13:06:54;25.30;94.50
78550;DHT22;68091;52.130;5.570;2023-06-26T13:09:21;25.70;93.30
78550;DHT22;68091;52.130;5.570;2023-06-26T13:11:46;25.60;93.00
78550;DHT22;68091;52.130;5.570;2023-06-26T13:14:12;25.60;93.10
78550;DHT22;68091;52.130;5.570;2023-06-26T13:16:38;25.30;93.20
78550;DHT22;68091;52.130;5.570;2023-06-26T13:19:04;25.20;93.20
78550;DHT22;68091;52.130;5.570;2023-06-26T13:21:29;25.00;93.10
78550;DHT22;68091;52.130;5.570;2023-06-26T13:23:55;25.00;93.50
78550;DHT22;68091;52.130;5.570;2023-06-26T13:26:21;25.30;93.10
78550;DHT22;68091;52.130;5.570;2023-06-26T13:28:50;25.50;92.80
78550;DHT22;68091;52.130;5.570;2023-06-26T13:31:16;25.50;93.00
78550;DHT22;68091;52.130;5.570;2023-06-26T13:33:41;25.40;91.90
78550;DHT22;68091;52.130;5.570;2023-06-26T13:36:07;25.40;92.60
78550;DHT22;68091;52.130;5.570;2023-06-26T13:38:33;25.80;92.50
78550;DHT22;68091;52.130;5.570;2023-06-26T13:40:59;25.90;92.60
78550;DHT22;68091;52.130;5.570;2023-06-26T13:43:26;25.80;92.70
78550;DHT22;68091;52.130;5.570;2023-06-26T13:45:52;26.00;93.00
78550;DHT22;68091;52.130;5.570;2023-06-26T13:48:17;26.10;92.90
78550;DHT22;68091;52.130;5.570;2023-06-26T13:50:43;26.30;92.40
78550;DHT22;68091;52.130;5.570;2023-06-26T13:53:08;26.10;92.50
78550;DHT22;68091;52.130;5.570;2023-06-26T13:55:34;26.00;92.30
78550;DHT22;68091;52.130;5.570;2023-06-26T13:58:00;26.00;92.40
78550;DHT22;68091;52.130;5.570;2023-06-26T14:00:29;26.30;92.30
78550;DHT22;68091;52.130;5.570;2023-06-26T14:02:55;26.50;91.90
78550;DHT22;68091;52.130;5.570;2023-06-26T14:05:21;26.40;92.00
78550;DHT22;68091;52.130;5.570;2023-06-26T14:07:48;26.30;92.70
78550;DHT22;68091;52.130;5.570;2023-06-26T14:10:13;26.50;92.40
78550;DHT22;68091;52.130;5.570;2023-06-26T14:12:39;26.50;91.80
78550;DHT22;68091;52.130;5.570;2023-06-26T14:15:05;26.50;91.70
78550;DHT22;68091;52.130;5.570;2023-06-26T14:17:31;26.80;91.10
78550;DHT22;68091;52.130;5.570;2023-06-26T14:19:56;27.20;91.20
78550;DHT22;68091;52.130;5.570;2023-06-26T14:22:22;27.30;90.60
78550;DHT22;68091;52.130;5.570;2023-06-26T14:24:48;27.80;89.40
78550;DHT22;68091;52.130;5.570;2023-06-26T14:27:14;27.40;90.80
78550;DHT22;68091;52.130;5.570;2023-06-26T14:29:39;27.70;90.40
78550;DHT22;68091;52.130;5.570;2023-06-26T14:32:05;28.00;87.30
78550;DHT22;68091;52.130;5.570;2023-06-26T14:34:31;28.20;88.90
78550;DHT22;68091;52.130;5.570;2023-06-26T14:36:56;28.90;87.20
78550;DHT22;68091;52.130;5.570;2023-06-26T14:39:22;29.40;87.40
78550;DHT22;68091;52.130;5.570;2023-06-26T14:41:48;30.10;84.00
78550;DHT22;68091;52.130;5.570;2023-06-26T14:44:16;30.00;82.50
78550;DHT22;68091;52.130;5.570;2023-06-26T14:46:42;30.10;82.60
78550;DHT22;68091;52.130;5.570;2023-06-26T14:49:08;30.00;80.20
78550;DHT22;68091;52.130;5.570;2023-06-26T14:51:34;29.40;81.10
78550;DHT22;68091;52.130;5.570;2023-06-26T14:54:00;28.00;84.00
78550;DHT22;68091;52.130;5.570;2023-06-26T14:56:25;27.30;85.60
78550;DHT22;68091;52.130;5.570;2023-06-26T14:58:51;26.70;86.00
78550;DHT22;68091;52.130;5.570;2023-06-26T15:01:18;26.40;87.60
78550;DHT22;68091;52.130;5.570;2023-06-26T15:03:45;26.40;86.70
78550;DHT22;68091;52.130;5.570;2023-06-26T15:06:10;26.00;89.00
78550;DHT22;68091;52.130;5.570;2023-06-26T15:08:36;26.40;87.80
78550;DHT22;68091;52.130;5.570;2023-06-26T15:11:01;26.90;88.20
78550;DHT22;68091;52.130;5.570;2023-06-26T15:13:28;28.20;86.00
78550;DHT22;68091;52.130;5.570;2023-06-26T15:15:53;28.70;82.90
78550;DHT22;68091;52.130;5.570;2023-06-26T15:18:19;28.20;84.00
78550;DHT22;68091;52.130;5.570;2023-06-26T15:20:44;28.60;84.40
78550;DHT22;68091;52.130;5.570;2023-06-26T15:23:10;29.10;82.90
78550;DHT22;68091;52.130;5.570;2023-06-26T15:25:36;30.00;80.00
78550;DHT22;68091;52.130;5.570;2023-06-26T15:28:02;30.60;79.60
78550;DHT22;68091;52.130;5.570;2023-06-26T15:30:28;31.10;78.20
78550;DHT22;68091;52.130;5.570;2023-06-26T15:32:53;30.50;76.20
78550;DHT22;68091;52.130;5.570;2023-06-26T15:35:19;30.50;77.00
78550;DHT22;68091;52.130;5.570;2023-06-26T15:37:44;30.60;74.00